createdAt,value
2019-02-06T00:00:59.701Z,3.65
2019-02-06T00:04:05.582Z,3.45
2019-02-06T00:07:11.538Z,4.12
2019-02-06T00:10:17.199Z,4.45
2019-02-06T00:13:22.962Z,4.97
2019-02-06T00:16:29.039Z,4.87
2019-02-06T00:19:34.771Z,4.78
2019-02-06T00:22:40.527Z,4.62
2019-02-06T00:25:46.390Z,5.30
2019-02-06T00:28:52.071Z,5.75
2019-02-06T00:31:57.779Z,5.80
2019-02-06T00:35:03.555Z,5.67
2019-02-06T00:38:09.203Z,4.53
2019-02-06T00:41:14.848Z,5.17
2019-02-06T00:44:20.496Z,6.17
2019-02-06T00:47:26.173Z,6.33
2019-02-06T00:50:31.952Z,6.25
2019-02-06T00:53:37.566Z,6.05
2019-02-06T00:56:43.570Z,6.05
2019-02-06T00:59:49.371Z,5.87
2019-02-06T01:02:55.228Z,6.83
2019-02-06T01:06:00.888Z,6.33
2019-02-06T01:09:09.503Z,6.55
2019-02-06T01:12:15.456Z,6.28
2019-02-06T01:15:21.133Z,6.33
2019-02-06T01:18:27.090Z,5.90
2019-02-06T01:21:32.727Z,5.78
2019-02-06T01:24:38.387Z,5.90
2019-02-06T01:27:44.339Z,4.80
2019-02-06T01:30:59.636Z,5.70
2019-02-06T01:34:05.634Z,5.60
2019-02-06T01:37:11.351Z,6.60
2019-02-06T01:40:18.307Z,5.30
2019-02-06T01:43:25.012Z,5.30
2019-02-06T01:46:30.760Z,5.70
2019-02-06T01:49:36.522Z,6.20
2019-02-06T01:52:42.155Z,6.00
2019-02-06T01:55:47.831Z,5.97
2019-02-06T01:58:53.879Z,5.80
2019-02-06T02:01:59.547Z,5.65
2019-02-06T02:05:06.019Z,6.40
2019-02-06T02:08:12.567Z,5.85
2019-02-06T02:11:18.786Z,5.75
2019-02-06T02:14:24.510Z,6.55
2019-02-06T02:17:30.195Z,6.65
2019-02-06T02:20:35.908Z,6.27
2019-02-06T02:23:41.591Z,6.37
2019-02-06T02:26:47.219Z,6.47
2019-02-06T02:29:52.927Z,6.85
2019-02-06T02:32:58.728Z,6.47
2019-02-06T02:36:15.099Z,6.22
2019-02-06T02:39:11.867Z,6.60
2019-02-06T02:42:17.633Z,7.05
2019-02-06T02:45:23.392Z,6.37
2019-02-06T02:48:29.121Z,6.83
2019-02-06T02:51:34.795Z,6.80
2019-02-06T02:54:40.575Z,7.15
2019-02-06T02:57:46.512Z,7.00
2019-02-06T03:01:09.944Z,6.50
2019-02-06T03:04:24.036Z,7.05
2019-02-06T03:07:29.886Z,7.30
2019-02-06T03:10:35.578Z,7.50
2019-02-06T03:13:41.392Z,7.17
2019-02-06T03:16:47.760Z,7.03
2019-02-06T03:19:53.411Z,6.92
2019-02-06T03:22:59.204Z,6.80
2019-02-06T03:26:05.036Z,7.10
2019-02-06T03:29:10.763Z,7.70
2019-02-06T03:32:16.450Z,6.72
2019-02-06T03:35:22.136Z,7.45
2019-02-06T03:38:27.848Z,7.35
2019-02-06T03:41:33.598Z,7.05
2019-02-06T03:44:39.224Z,7.72
2019-02-06T03:47:44.951Z,7.25
2019-02-06T03:50:50.734Z,6.37
2019-02-06T03:53:56.794Z,6.12
2019-02-06T03:57:02.438Z,7.08
2019-02-06T04:00:10.956Z,6.70
2019-02-06T04:03:16.607Z,7.15
2019-02-06T04:06:22.376Z,6.33
2019-02-06T04:09:28.230Z,6.58
2019-02-06T04:12:33.895Z,6.35
2019-02-06T04:15:39.552Z,6.90
2019-02-06T04:18:45.179Z,6.50
2019-02-06T04:21:50.835Z,6.70
2019-02-06T04:24:56.483Z,6.90
2019-02-06T04:28:02.147Z,6.67
2019-02-06T04:31:07.801Z,6.53
2019-02-06T04:34:13.967Z,6.90
2019-02-06T04:37:19.651Z,6.50
2019-02-06T04:40:25.470Z,6.75
2019-02-06T04:43:31.235Z,7.17
2019-02-06T04:46:36.888Z,6.25
2019-02-06T04:49:42.529Z,5.60
2019-02-06T04:52:48.326Z,6.40
2019-02-06T04:55:54.255Z,6.60
2019-02-06T04:58:59.908Z,6.33
2019-02-06T05:02:05.852Z,5.67
2019-02-06T05:05:11.808Z,6.17
2019-02-06T05:08:17.571Z,6.47
2019-02-06T05:11:23.227Z,6.90
2019-02-06T05:14:29.283Z,5.95
2019-02-06T05:17:35.972Z,6.33
2019-02-06T05:20:42.338Z,5.70
2019-02-06T05:23:48.298Z,5.75
2019-02-06T05:26:54.370Z,5.05
2019-02-06T05:30:00.278Z,5.40
2019-02-06T05:33:06.004Z,5.45
2019-02-06T05:36:11.731Z,5.30
2019-02-06T05:39:17.503Z,5.07
2019-02-06T05:42:23.123Z,5.05
2019-02-06T05:45:30.174Z,5.00
2019-02-06T05:48:35.880Z,4.65
2019-02-06T05:51:41.619Z,4.63
2019-02-06T05:54:47.353Z,4.17
2019-02-06T05:57:53.248Z,4.45
2019-02-06T06:00:59.033Z,4.70
2019-02-06T06:04:04.752Z,4.60
2019-02-06T06:07:10.635Z,4.42
2019-02-06T06:10:17.177Z,4.50
2019-02-06T06:13:23.153Z,4.12
2019-02-06T06:16:30.043Z,4.15
2019-02-06T06:19:35.671Z,4.03
2019-02-06T06:22:41.623Z,4.10
2019-02-06T06:25:47.291Z,4.37
2019-02-06T06:28:52.989Z,4.00
2019-02-06T06:31:58.698Z,4.08
2019-02-06T06:35:04.484Z,3.65
2019-02-06T06:38:10.200Z,4.60
2019-02-06T06:41:15.892Z,4.13
2019-02-06T06:44:21.514Z,4.65
2019-02-06T06:47:27.172Z,4.58
2019-02-06T06:50:32.962Z,4.00
2019-02-06T06:53:38.659Z,3.75
2019-02-06T06:56:44.539Z,3.65
2019-02-06T06:59:50.187Z,3.70
2019-02-06T07:02:56.083Z,3.92
2019-02-06T07:06:01.902Z,4.45
2019-02-06T07:09:09.747Z,3.92
2019-02-06T07:12:15.459Z,4.15
2019-02-06T07:15:23.402Z,3.95
2019-02-06T07:18:29.129Z,3.95
2019-02-06T07:21:34.893Z,3.62
2019-02-06T07:24:40.627Z,4.30
2019-02-06T07:27:46.762Z,3.52
2019-02-06T07:30:54.191Z,4.12
2019-02-06T07:34:00.499Z,10.23
2019-02-06T07:37:07.239Z,12.90
2019-02-06T07:40:13.030Z,15.40
2019-02-06T07:43:18.736Z,6.08
2019-02-06T07:46:24.391Z,6.53
2019-02-06T07:49:30.059Z,6.72
2019-02-06T07:52:35.711Z,6.40
2019-02-06T07:55:41.459Z,5.80
2019-02-06T07:58:47.223Z,5.50
2019-02-06T08:01:52.967Z,6.58
2019-02-06T08:04:58.615Z,5.50
2019-02-06T08:08:04.779Z,5.42
2019-02-06T08:11:10.544Z,5.72
2019-02-06T08:14:16.509Z,8.10
2019-02-06T08:17:22.266Z,7.55
2019-02-06T08:20:27.907Z,5.85
2019-02-06T08:23:34.411Z,7.33
2019-02-06T08:26:40.258Z,6.40
2019-02-06T08:29:52.894Z,5.37
2019-02-06T08:32:59.590Z,5.30
2019-02-06T08:36:10.212Z,4.92
2019-02-06T08:39:16.465Z,4.97
2019-02-06T08:42:22.777Z,4.67
2019-02-06T08:45:30.189Z,4.10
2019-02-06T08:48:41.333Z,4.00
2019-02-06T08:51:48.515Z,4.12
2019-02-06T08:54:54.982Z,3.98
2019-02-06T08:58:08.461Z,3.92
2019-02-06T09:01:13.500Z,3.70
2019-02-06T09:04:20.361Z,3.95
2019-02-06T09:07:29.608Z,4.70
2019-02-06T09:10:38.553Z,6.17
2019-02-06T09:13:45.687Z,6.12
2019-02-06T09:16:52.352Z,4.80
2019-02-06T09:19:58.440Z,11.68
2019-02-06T09:23:04.697Z,16.05
2019-02-06T09:26:12.716Z,14.43
2019-02-06T09:29:18.464Z,15.00
2019-02-06T09:32:24.444Z,16.15
2019-02-06T09:35:31.086Z,15.28
2019-02-06T09:38:37.064Z,15.05
2019-02-06T09:41:43.032Z,15.30
2019-02-06T09:44:49.356Z,15.55
2019-02-06T09:47:55.371Z,14.60
2019-02-06T09:51:01.737Z,14.85
2019-02-06T09:54:07.709Z,15.28
2019-02-06T09:57:13.647Z,14.28
2019-02-06T10:00:24.873Z,15.00
2019-02-06T10:03:30.892Z,10.85
2019-02-06T10:06:36.856Z,7.30
2019-02-06T10:09:42.809Z,7.10
2019-02-06T10:12:48.882Z,7.67
2019-02-06T10:15:55.660Z,7.25
2019-02-06T10:19:01.832Z,7.08
2019-02-06T10:22:07.978Z,6.30
2019-02-06T10:25:13.984Z,5.87
2019-02-06T10:28:20.004Z,5.75
2019-02-06T10:31:25.899Z,6.15
2019-02-06T10:34:31.724Z,5.50
2019-02-06T10:37:37.836Z,6.20
2019-02-06T10:40:43.634Z,5.50
2019-02-06T10:43:49.606Z,5.58
2019-02-06T10:46:55.664Z,5.17
2019-02-06T10:50:01.462Z,4.92
2019-02-06T10:53:07.976Z,4.85
2019-02-06T10:56:13.993Z,4.60
2019-02-06T10:59:19.908Z,4.80
2019-02-06T11:02:26.012Z,4.50
2019-02-06T11:05:32.044Z,4.65
2019-02-06T11:08:38.161Z,4.85
2019-02-06T11:11:43.963Z,4.75
2019-02-06T11:14:50.118Z,4.45
2019-02-06T11:17:56.084Z,4.35
2019-02-06T11:21:02.060Z,4.33
2019-02-06T11:24:08.861Z,3.67
2019-02-06T11:27:14.719Z,4.30
2019-02-06T11:30:25.460Z,4.00
2019-02-06T11:33:31.357Z,3.85
2019-02-06T11:36:37.384Z,4.12
2019-02-06T11:39:43.404Z,4.05
2019-02-06T11:42:49.397Z,3.52
2019-02-06T11:45:55.292Z,3.98
2019-02-06T11:49:01.134Z,4.30
2019-02-06T11:52:07.212Z,3.60
2019-02-06T11:55:15.897Z,3.62
2019-02-06T11:58:21.649Z,3.45
2019-02-06T12:01:30.892Z,3.58
2019-02-06T12:04:37.213Z,3.40
2019-02-06T12:07:43.216Z,3.45
2019-02-06T12:10:49.577Z,3.27
2019-02-06T12:13:55.356Z,3.02
2019-02-06T12:17:01.202Z,2.98
2019-02-06T12:20:09.928Z,3.10
2019-02-06T12:23:15.689Z,3.00
2019-02-06T12:26:21.736Z,3.15
2019-02-06T12:29:27.496Z,3.15
2019-02-06T12:32:33.557Z,2.65
2019-02-06T12:35:39.720Z,2.58
2019-02-06T12:38:53.215Z,2.55
2019-02-06T12:41:52.873Z,2.80
2019-02-06T12:44:59.884Z,2.55
2019-02-06T12:48:06.228Z,2.87
2019-02-06T12:51:12.089Z,2.70
2019-02-06T12:54:19.600Z,2.50
2019-02-06T12:57:36.047Z,2.75
2019-02-06T13:00:33.952Z,2.77
2019-02-06T13:03:39.928Z,2.40
2019-02-06T13:06:45.565Z,2.40
2019-02-06T13:09:51.827Z,2.42
2019-02-06T13:12:58.155Z,2.47
2019-02-06T13:16:04.069Z,2.52
2019-02-06T13:19:09.926Z,2.60
2019-02-06T13:22:15.676Z,2.70
2019-02-06T13:25:21.841Z,2.25
2019-02-06T13:28:39.212Z,2.87
2019-02-06T13:31:45.234Z,2.40
2019-02-06T13:34:51.200Z,2.80
2019-02-06T13:37:57.249Z,3.92
2019-02-06T13:41:03.116Z,3.83
2019-02-06T13:44:08.866Z,3.55
2019-02-06T13:47:15.140Z,3.45
2019-02-06T13:50:22.444Z,3.60
2019-02-06T13:53:28.276Z,3.50
2019-02-06T13:56:34.245Z,3.08
2019-02-06T13:59:40.104Z,3.33
2019-02-06T14:02:46.160Z,3.30
2019-02-06T14:05:52.130Z,3.00
2019-02-06T14:08:57.868Z,2.98
2019-02-06T14:12:03.735Z,2.87
2019-02-06T14:15:11.766Z,2.60
2019-02-06T14:18:17.902Z,2.45
2019-02-06T14:21:23.864Z,2.65
2019-02-06T14:24:55.328Z,2.60
2019-02-06T14:28:31.952Z,1.98
2019-02-06T14:31:54.456Z,2.37
2019-02-06T14:35:25.404Z,2.87
2019-02-06T14:39:05.633Z,1.82
2019-02-06T14:42:33.028Z,2.33
2019-02-06T14:46:11.694Z,2.20
2019-02-06T14:50:07.889Z,2.22
2019-02-06T14:53:51.021Z,2.20
2019-02-06T14:57:50.032Z,2.30
2019-02-06T15:01:45.354Z,1.92
2019-02-06T15:05:27.887Z,2.27
2019-02-06T15:09:10.272Z,2.30
2019-02-06T15:12:38.352Z,2.27
2019-02-06T15:16:40.429Z,2.60
2019-02-06T15:20:14.348Z,2.10
2019-02-06T15:24:16.216Z,2.10
2019-02-06T15:27:47.984Z,2.02
2019-02-06T15:31:25.580Z,2.58
2019-02-06T15:34:58.380Z,2.10
2019-02-06T15:38:42.220Z,2.42
2019-02-06T15:42:12.941Z,2.45
2019-02-06T15:45:58.034Z,2.52
2019-02-06T15:49:17.789Z,1.85
2019-02-06T15:52:41.728Z,2.20
2019-02-06T15:56:40.613Z,2.33
2019-02-06T16:00:15.469Z,2.00
2019-02-06T16:04:18.795Z,1.87
2019-02-06T16:08:08.254Z,2.00
2019-02-06T16:11:44.832Z,2.15
2019-02-06T16:15:25.203Z,1.98
2019-02-06T16:19:11.345Z,2.33
2019-02-06T16:22:38.660Z,2.22
2019-02-06T16:26:05.201Z,1.90
2019-02-06T16:29:32.733Z,2.27
2019-02-06T16:33:14.470Z,2.47
2019-02-06T16:37:07.170Z,2.25
2019-02-06T16:41:03.603Z,2.37
2019-02-06T16:44:48.645Z,2.27
2019-02-06T16:48:40.481Z,2.45
2019-02-06T16:52:48.288Z,2.33
2019-02-06T16:56:26.406Z,2.20
2019-02-06T17:00:21.013Z,2.40
2019-02-06T17:04:15.089Z,2.20
2019-02-06T17:08:16.756Z,2.20
2019-02-06T17:12:09.309Z,2.30
2019-02-06T17:15:36.600Z,2.20
2019-02-06T17:18:59.114Z,2.10
2019-02-06T17:22:39.280Z,2.30
2019-02-06T17:26:08.181Z,2.25
2019-02-06T17:29:50.388Z,2.50
2019-02-06T17:33:15.428Z,2.35
2019-02-06T17:37:02.008Z,2.30
2019-02-06T17:40:28.549Z,2.40
2019-02-06T17:44:27.736Z,2.30
2019-02-06T17:48:03.712Z,2.35
2019-02-06T17:51:41.120Z,2.20
2019-02-06T17:55:19.024Z,2.27
2019-02-06T17:58:24.985Z,2.75
2019-02-06T18:01:43.541Z,2.27
2019-02-06T18:04:50.024Z,2.50
2019-02-06T18:07:56.893Z,2.58
2019-02-06T18:11:02.853Z,2.58
2019-02-06T18:14:08.820Z,2.50
2019-02-06T18:17:14.876Z,2.70
2019-02-06T18:20:20.828Z,2.40
2019-02-06T18:23:26.693Z,2.58
2019-02-06T18:26:32.552Z,2.55
2019-02-06T18:29:38.408Z,2.17
2019-02-06T18:32:44.372Z,2.40
2019-02-06T18:35:50.333Z,2.33
2019-02-06T18:38:56.079Z,2.58
2019-02-06T18:42:02.240Z,2.47
2019-02-06T18:45:11.732Z,2.70
2019-02-06T18:48:21.233Z,3.08
2019-02-06T18:51:27.196Z,2.45
2019-02-06T18:54:33.157Z,2.47
2019-02-06T18:57:39.012Z,2.60
2019-02-06T19:00:44.845Z,2.80
2019-02-06T19:03:50.864Z,2.50
2019-02-06T19:06:56.784Z,2.50
2019-02-06T19:10:02.792Z,2.87
2019-02-06T19:13:08.858Z,2.90
2019-02-06T19:16:15.162Z,3.08
2019-02-06T19:19:25.481Z,3.20
2019-02-06T19:22:29.148Z,2.62
2019-02-06T19:25:35.152Z,2.77
2019-02-06T19:28:42.592Z,2.70
2019-02-06T19:31:48.552Z,2.67
2019-02-06T19:34:54.325Z,2.92
2019-02-06T19:38:00.421Z,2.33
2019-02-06T19:41:07.404Z,2.87
2019-02-06T19:44:13.328Z,2.47
2019-02-06T19:47:19.189Z,9.15
2019-02-06T19:50:27.397Z,9.90
2019-02-06T19:53:33.464Z,8.50
2019-02-06T19:56:39.360Z,7.42
2019-02-06T19:59:45.272Z,6.45
2019-02-06T20:02:58.433Z,5.22
2019-02-06T20:06:05.724Z,4.85
2019-02-06T20:09:12.889Z,4.83
2019-02-06T20:12:18.892Z,4.45
2019-02-06T20:15:25.002Z,4.20
2019-02-06T20:18:33.015Z,4.03
2019-02-06T20:21:40.544Z,4.03
2019-02-06T20:24:46.364Z,4.12
2019-02-06T20:27:53.446Z,3.92
2019-02-06T20:30:59.548Z,4.17
2019-02-06T20:34:05.474Z,4.20
2019-02-06T20:37:11.376Z,3.92
2019-02-06T20:40:22.213Z,5.00
2019-02-06T20:43:28.068Z,4.10
2019-02-06T20:46:33.974Z,4.33
2019-02-06T20:49:39.780Z,4.28
2019-02-06T20:52:45.781Z,4.50
2019-02-06T20:55:51.616Z,3.90
2019-02-06T20:58:57.352Z,3.98
2019-02-06T21:02:03.052Z,3.67
2019-02-06T21:05:10.508Z,4.78
2019-02-06T21:08:16.504Z,4.55
2019-02-06T21:11:22.424Z,3.60
2019-02-06T21:14:28.284Z,4.60
2019-02-06T21:17:34.191Z,4.62
2019-02-06T21:20:40.100Z,4.97
2019-02-06T21:23:46.004Z,4.65
2019-02-06T21:26:51.710Z,4.12
2019-02-06T21:29:57.621Z,5.20
2019-02-06T21:33:03.744Z,4.53
2019-02-06T21:36:09.625Z,4.37
2019-02-06T21:39:15.492Z,3.22
2019-02-06T21:42:21.453Z,4.20
2019-02-06T21:45:27.698Z,4.60
2019-02-06T21:48:33.578Z,4.40
2019-02-06T21:51:39.388Z,3.80
2019-02-06T21:54:46.043Z,3.75
2019-02-06T21:57:52.339Z,3.52
2019-02-06T22:00:58.097Z,4.17
2019-02-06T22:04:04.876Z,4.20
2019-02-06T22:07:10.661Z,3.70
2019-02-06T22:10:17.507Z,3.77
2019-02-06T22:13:23.404Z,4.45
2019-02-06T22:16:29.745Z,3.77
2019-02-06T22:19:35.916Z,4.05
2019-02-06T22:22:42.952Z,4.20
2019-02-06T22:25:49.976Z,3.33
2019-02-06T22:28:56.044Z,3.80
2019-02-06T22:32:02.006Z,3.92
2019-02-06T22:35:08.580Z,3.65
2019-02-06T22:38:14.636Z,4.00
2019-02-06T22:41:20.697Z,3.95
2019-02-06T22:44:26.761Z,3.67
2019-02-06T22:47:34.070Z,4.20
2019-02-06T22:50:40.217Z,4.62
2019-02-06T22:53:46.381Z,4.53
2019-02-06T22:56:55.007Z,5.08
2019-02-06T23:00:00.252Z,4.85
2019-02-06T23:03:07.781Z,4.90
2019-02-06T23:06:14.219Z,4.83
2019-02-06T23:09:20.692Z,4.30
2019-02-06T23:12:27.402Z,4.50
2019-02-06T23:15:33.424Z,4.12
2019-02-06T23:18:39.392Z,4.03
2019-02-06T23:21:46.375Z,4.40
2019-02-06T23:24:52.536Z,4.65
2019-02-06T23:27:58.540Z,3.85
2019-02-06T23:31:04.972Z,4.00
2019-02-06T23:34:11.032Z,4.28
2019-02-06T23:37:16.992Z,3.75
2019-02-06T23:40:23.052Z,4.20
2019-02-06T23:43:29.056Z,4.53
2019-02-06T23:46:35.084Z,4.55
2019-02-06T23:49:41.035Z,4.33
2019-02-06T23:52:47.302Z,4.05
2019-02-06T23:55:53.464Z,4.22
2019-02-06T23:58:59.568Z,4.12
